AirNav   Everest Fuels
 
 1458 users online  

90KY Mother Nature Spring Water Heliport
Ashcamp, Kentucky, USA

GOING TO ASHCAMP?


FAA INFORMATION EFFECTIVE 21 MAY 2020

Location

FAA Identifier: 90KY
Lat/Long: 37-15-31.0000N 082-27-41.0000W
37-15.516667N 082-27.683333W
37.2586111,-82.4613889
(estimated)
Elevation: 1000 ft. / 305 m (estimated)
From city: 22 miles NW of ASHCAMP, KY
Time zone: UTC -4 (UTC -5 during Standard Time)
Zip code: 41512

Heliport Operations

Heliport use: Private use. Permission required prior to landing
Activation date: 09/2011
Control tower: no
ARTCC: INDIANAPOLIS CENTER
FSS: LOUISVILLE FLIGHT SERVICE STATION
Attendance: UNATNDD
Wind indicator: yes
Segmented circle: no

Heliport Communications

WX AWOS-3 at LNP (17 nm S): 118.6 (276-328-3727)
WX AWOS-3 at PBX (19 nm N): 121.225 (606-437-6701)

Nearby radio navigation aids

VOR radial/distance  VOR name  Freq  Var
GZGr327/31.8GLADE SPRING VOR/DME110.2002W
AZQr106/39.1HAZARD VOR/DME111.2004W

Heliport Services

Runway Information

Helipad H1

Dimensions: 45 x 48 ft. / 14 x 15 m
Surface: concrete
Traffic pattern: leftleft

Heliport Ownership and Management from official FAA records

Ownership: Privately-owned
Owner: ESTIL BENTLEY JR.
8862 ELKHORN CREEK ROAD
ASHCAMP, KY 41512
Phone 606-754-5756
Manager: ESTIL BENTLEY JR.
8862 ELKHORN CREEK ROAD
ASHCAMP, KY 41512
Phone 606-754-5756

Heliport Operational Statistics

Aircraft based on the field: 1
Helicopters: 1
    

Additional Remarks

FOR CD CTC INDIANAPOLIS ARTCC AT 317-247-2411.

Instrument Procedures

There are no published instrument procedures at 90KY.

Some nearby airports with instrument procedures:

KLNP - Lonesome Pine Airport (17 nm S)
KPBX - Pike County Airport-Hatcher Field (19 nm N)
KEBD - Appalachian Regional Airport (30 nm NE)
KSJS - Big Sandy Regional Airport (31 nm N)
KJFZ - Tazewell County Airport (34 nm E)
 
Loc | Ops | Rwys | IFR | FBO | Links
Com | Nav | Svcs | Stats | Notes
Aerial photo
No photo
 
Airport distance calculator
Flying to Mother Nature Spring Water Heliport? Find the distance to fly.

From to 90KY

Sunrise and sunset
Times for 02-Jun-2020
 Local
(UTC-4)
 Zulu
(UTC)
Morning civil twilight05:4109:41
Sunrise06:1110:11
Sunset20:4500:45
Evening civil twilight21:1501:15

Current date and time
Zulu (UTC)  02-Jun-2020 15:47:44
Local (UTC-4)  02-Jun-2020 11:47:44
 
METAR
KLNP 
18nm S 
021535Z AUTO 23007KT 10SM SCT035 23/15 A3025 RMK AO2
KPBX 
19nm N 
021535Z AUTO 22006KT 10SM CLR 25/17 A3016 RMK AO2 T02500168
KSJS 
31nm N 
AWOS-3 120.175 606-298-4143
021535Z AUTO 28009G16KT 10SM CLR 26/17 A3015 RMK AO2 T02560166
KJFZ 
34nm E 
021535Z AUTO 25010KT 220V300 10SM SCT034 A3024 RMK AO2
TAF
KSJS 
31nm N 
021133Z 0212/0312 VRB03KT P6SM SCT100 FM021600 25008KT P6SM FEW250 FM030400 VRB04KT P6SM FEW250
NOTAMs
Click for the latest NOTAMs
NOTAMs are issued by the DoD/FAA and will open in a separate window not controlled by AirNav.

 

 
 

Would you like to see your business listed on this page?

 If your business provides an interesting product or service to pilots, flight crews, aircraft, or users of the Mother Nature Spring Water Heliport, you should consider listing it here.  To start the listing process, click on the button below
 
Add a business
 

Other Pages about Mother Nature Spring Water Heliport

Update a link
 
Copyright © AirNav, LLC. All rights reserved. Privacy Policy  Contact